createdAt,value
2022-08-26T00:00:55.681Z,5.90
2022-08-26T00:03:35.035Z,5.90
2022-08-26T00:06:21.655Z,5.90
2022-08-26T00:08:56.062Z,6.10
2022-08-26T00:11:49.109Z,6.50
2022-08-26T00:14:31.240Z,6.50
2022-08-26T00:20:21.828Z,5.90
2022-08-26T00:23:24.133Z,6.50
2022-08-26T00:26:15.010Z,6.10
2022-08-26T00:31:31.123Z,6.30
2022-08-26T00:34:19.311Z,6.40
2022-08-26T00:37:11.628Z,6.40
2022-08-26T00:40:00.619Z,6.90
2022-08-26T00:42:57.901Z,6.30
2022-08-26T00:46:26.704Z,6.20
2022-08-26T00:49:35.422Z,5.80
2022-08-26T00:52:52.996Z,7.00
2022-08-26T00:55:37.808Z,6.40
2022-08-26T00:58:34.313Z,6.80
2022-08-26T01:01:19.895Z,6.40
2022-08-26T01:04:05.010Z,7.20
2022-08-26T01:10:21.883Z,7.10
2022-08-26T01:13:22.413Z,7.30
2022-08-26T01:16:05.597Z,7.10
2022-08-26T01:18:48.082Z,6.50
2022-08-26T01:21:40.695Z,6.40
2022-08-26T01:24:16.694Z,6.70
2022-08-26T01:27:03.831Z,6.70
2022-08-26T01:29:45.440Z,6.80
2022-08-26T01:32:26.799Z,6.50
2022-08-26T01:35:03.663Z,6.70
2022-08-26T01:37:58.493Z,7.50
2022-08-26T01:40:38.878Z,6.80
2022-08-26T01:43:33.566Z,6.40
2022-08-26T01:46:15.274Z,6.80
2022-08-26T01:48:47.525Z,7.50
2022-08-26T01:51:27.770Z,7.20
2022-08-26T01:54:23.495Z,6.80
2022-08-26T01:56:56.782Z,7.00
2022-08-26T01:59:35.731Z,7.60
2022-08-26T02:02:28.542Z,6.60
2022-08-26T02:05:06.703Z,7.20
2022-08-26T02:08:24.602Z,6.80
2022-08-26T02:11:26.766Z,7.30
2022-08-26T02:14:13.607Z,6.40
2022-08-26T02:16:51.181Z,6.70
2022-08-26T02:19:36.579Z,6.70
2022-08-26T02:22:12.273Z,6.50
2022-08-26T02:24:54.119Z,6.90
2022-08-26T02:27:40.819Z,6.70
2022-08-26T02:30:32.561Z,7.20
2022-08-26T02:33:19.516Z,7.20
2022-08-26T02:36:08.405Z,7.60
2022-08-26T02:39:27.459Z,6.90
2022-08-26T02:42:10.079Z,7.00
2022-08-26T02:44:53.227Z,7.60
2022-08-26T02:47:53.362Z,7.70
2022-08-26T02:50:43.611Z,7.30
2022-08-26T02:53:17.151Z,8.00
2022-08-26T02:56:33.905Z,7.20
2022-08-26T02:59:15.759Z,6.60
2022-08-26T03:02:14.538Z,7.40
2022-08-26T03:05:15.986Z,7.90
2022-08-26T03:08:00.917Z,7.70
2022-08-26T03:10:50.051Z,7.90
2022-08-26T03:13:21.859Z,7.80
2022-08-26T03:16:04.303Z,6.90
2022-08-26T03:18:58.387Z,8.00
2022-08-26T03:21:50.073Z,7.80
2022-08-26T03:24:41.480Z,7.10
2022-08-26T03:27:15.495Z,7.20
2022-08-26T03:30:13.920Z,7.70
2022-08-26T03:32:53.640Z,7.30
2022-08-26T03:35:43.529Z,7.70
2022-08-26T03:38:28.035Z,7.70
2022-08-26T03:41:12.934Z,6.90
2022-08-26T03:43:42.964Z,7.70
2022-08-26T03:46:21.732Z,7.70
2022-08-26T03:48:54.406Z,7.30
2022-08-26T03:51:27.255Z,7.50
2022-08-26T03:54:03.437Z,7.90
2022-08-26T03:56:38.026Z,6.90
2022-08-26T03:59:22.696Z,6.70
2022-08-26T04:02:19.900Z,7.10
2022-08-26T04:05:00.626Z,7.30
2022-08-26T04:07:40.482Z,7.80
2022-08-26T04:10:34.612Z,8.00
2022-08-26T04:13:13.255Z,7.40
2022-08-26T04:16:04.464Z,7.20
2022-08-26T04:19:08.630Z,6.70
2022-08-26T04:24:45.171Z,7.40
2022-08-26T04:27:23.870Z,7.40
2022-08-26T04:30:26.210Z,7.70
2022-08-26T04:33:46.584Z,7.60
2022-08-26T04:36:30.180Z,7.20
2022-08-26T04:39:18.803Z,6.80
2022-08-26T04:42:11.598Z,7.60
2022-08-26T04:44:48.994Z,8.00
2022-08-26T04:47:46.502Z,7.10
2022-08-26T04:50:26.666Z,7.90
2022-08-26T04:52:59.615Z,7.90
2022-08-26T04:55:55.507Z,7.50
2022-08-26T04:58:44.882Z,6.90
2022-08-26T05:01:43.418Z,7.30
2022-08-26T05:04:20.957Z,7.80
2022-08-26T05:07:03.320Z,7.00
2022-08-26T05:09:50.571Z,6.70
2022-08-26T05:13:11.193Z,6.70
2022-08-26T05:16:01.268Z,7.20
2022-08-26T05:19:14.404Z,7.30
2022-08-26T05:22:48.004Z,7.10
2022-08-26T05:26:00.317Z,7.80
2022-08-26T05:29:02.173Z,7.70
2022-08-26T05:31:34.050Z,7.80
2022-08-26T05:34:30.131Z,7.80
2022-08-26T05:37:21.996Z,7.30
2022-08-26T05:39:51.526Z,7.60
2022-08-26T05:43:05.078Z,6.90
2022-08-26T05:46:22.425Z,7.30
2022-08-26T05:49:12.290Z,6.10
2022-08-26T05:51:53.268Z,6.40
2022-08-26T05:54:52.427Z,7.70
2022-08-26T05:57:39.971Z,7.00
2022-08-26T06:00:32.170Z,7.20
2022-08-26T06:03:19.655Z,7.30
2022-08-26T06:05:54.661Z,6.50
2022-08-26T06:08:45.143Z,7.10
2022-08-26T06:11:41.323Z,7.20
2022-08-26T06:14:14.773Z,7.10
2022-08-26T06:17:01.325Z,6.40
2022-08-26T06:23:12.326Z,6.50
2022-08-26T06:25:52.518Z,6.20
2022-08-26T06:28:48.301Z,6.50
2022-08-26T06:31:31.218Z,6.00
2022-08-26T06:34:10.379Z,6.40
2022-08-26T06:36:47.604Z,6.50
2022-08-26T06:39:36.276Z,6.50
2022-08-26T06:42:22.488Z,6.10
2022-08-26T06:45:00.825Z,6.30
2022-08-26T06:47:40.828Z,6.80
2022-08-26T06:50:36.421Z,7.20
2022-08-26T06:53:29.663Z,7.10
2022-08-26T06:56:13.299Z,6.90
2022-08-26T06:58:58.168Z,6.60
2022-08-26T07:01:30.718Z,7.10
2022-08-26T07:04:28.539Z,7.30
2022-08-26T07:07:05.082Z,7.60
2022-08-26T07:09:45.055Z,7.80
2022-08-26T07:12:15.913Z,6.70
2022-08-26T07:14:54.102Z,7.00
2022-08-26T07:17:50.249Z,7.60
2022-08-26T07:20:37.041Z,6.90
2022-08-26T07:23:26.593Z,7.40
2022-08-26T07:26:30.086Z,7.70
2022-08-26T07:29:37.942Z,6.90
2022-08-26T07:32:32.534Z,6.90
2022-08-26T07:35:10.090Z,6.80
2022-08-26T07:37:58.761Z,7.40
2022-08-26T07:40:38.300Z,7.70
2022-08-26T07:43:10.165Z,7.80
2022-08-26T07:45:58.172Z,7.30
2022-08-26T07:48:55.871Z,6.70
2022-08-26T07:51:44.081Z,7.00
2022-08-26T07:54:14.733Z,7.80
2022-08-26T07:56:56.247Z,7.50
2022-08-26T07:59:33.503Z,7.50
2022-08-26T08:02:09.143Z,7.50
2022-08-26T08:05:15.683Z,7.20
2022-08-26T08:08:26.292Z,7.40
2022-08-26T08:11:05.521Z,8.20
2022-08-26T08:13:56.839Z,7.50
2022-08-26T08:16:32.281Z,7.30
2022-08-26T08:19:36.867Z,7.80
2022-08-26T08:22:17.059Z,7.30
2022-08-26T08:25:00.471Z,7.10
2022-08-26T08:27:52.715Z,7.30
2022-08-26T08:30:25.818Z,6.70
2022-08-26T08:33:03.787Z,7.50
2022-08-26T08:35:44.921Z,8.10
2022-08-26T08:38:39.687Z,7.30
2022-08-26T08:42:13.241Z,7.60
2022-08-26T08:45:01.556Z,7.60
2022-08-26T08:47:47.425Z,8.30
2022-08-26T08:50:42.461Z,7.70
2022-08-26T08:53:43.167Z,8.10
2022-08-26T08:57:05.443Z,7.20
2022-08-26T08:59:53.748Z,7.90
2022-08-26T09:02:36.619Z,8.00
2022-08-26T09:05:48.752Z,7.00
2022-08-26T09:08:37.764Z,7.80
2022-08-26T09:11:15.337Z,7.70
2022-08-26T09:14:22.953Z,7.50
2022-08-26T09:17:52.553Z,8.00
2022-08-26T09:20:54.072Z,7.80
2022-08-26T09:23:53.147Z,7.70
2022-08-26T09:26:50.255Z,8.20
2022-08-26T09:29:44.365Z,7.00
2022-08-26T09:32:35.769Z,7.40
2022-08-26T09:35:33.302Z,7.00
2022-08-26T09:38:28.151Z,6.70
2022-08-26T09:41:37.492Z,7.50
2022-08-26T09:44:32.999Z,6.10
2022-08-26T09:47:09.541Z,6.20
2022-08-26T09:49:56.845Z,6.40
2022-08-26T09:52:55.127Z,6.40
2022-08-26T09:55:28.745Z,6.30
2022-08-26T09:58:10.605Z,6.70
2022-08-26T10:01:16.024Z,6.70
2022-08-26T10:03:59.055Z,6.70
2022-08-26T10:06:59.587Z,7.30
2022-08-26T10:09:53.014Z,7.30
2022-08-26T10:12:48.204Z,7.20
2022-08-26T10:15:34.158Z,6.70
2022-08-26T10:18:36.986Z,7.50
2022-08-26T10:21:27.154Z,7.60
2022-08-26T10:24:43.583Z,7.00
2022-08-26T10:27:54.746Z,7.90
2022-08-26T10:30:37.771Z,7.50
2022-08-26T10:33:23.948Z,7.70
2022-08-26T10:37:05.023Z,7.50
2022-08-26T10:39:38.632Z,7.90
2022-08-26T10:42:37.532Z,7.60
2022-08-26T10:45:53.906Z,7.80
2022-08-26T10:49:11.307Z,7.50
2022-08-26T10:52:02.245Z,8.10
2022-08-26T10:55:10.732Z,8.60
2022-08-26T10:58:11.796Z,8.50
2022-08-26T11:01:16.205Z,8.30
2022-08-26T11:04:06.517Z,8.50
2022-08-26T11:07:29.112Z,9.00
2022-08-26T11:10:12.956Z,8.60
2022-08-26T11:12:49.641Z,9.00
2022-08-26T11:15:54.563Z,8.20
2022-08-26T11:18:41.055Z,8.60
2022-08-26T11:22:14.012Z,8.60
2022-08-26T11:25:05.661Z,8.70
2022-08-26T11:28:17.682Z,9.10
2022-08-26T11:30:58.336Z,8.90
2022-08-26T11:34:04.114Z,9.10
2022-08-26T11:36:41.412Z,8.40
2022-08-26T11:39:54.070Z,9.10
2022-08-26T11:42:56.287Z,7.90
2022-08-26T11:46:00.155Z,8.60
2022-08-26T11:48:50.384Z,8.80
2022-08-26T11:51:38.206Z,8.60
2022-08-26T11:54:32.725Z,8.50
2022-08-26T11:57:28.621Z,8.30
2022-08-26T12:00:22.353Z,8.90
2022-08-26T12:02:53.570Z,8.30
2022-08-26T12:05:49.742Z,8.80
2022-08-26T12:08:41.805Z,8.70
2022-08-26T12:11:29.352Z,8.40
2022-08-26T12:14:31.279Z,9.00
2022-08-26T12:17:32.761Z,8.30
2022-08-26T12:20:57.158Z,8.30
2022-08-26T12:24:06.809Z,8.70
2022-08-26T12:27:22.044Z,8.10
2022-08-26T12:30:37.961Z,7.60
2022-08-26T12:33:29.534Z,7.50
2022-08-26T12:36:10.771Z,7.60
2022-08-26T12:38:58.088Z,7.60
2022-08-26T12:42:08.385Z,7.60
2022-08-26T12:45:10.533Z,7.70
2022-08-26T12:47:57.956Z,7.30
2022-08-26T12:50:42.852Z,7.30
2022-08-26T12:53:25.942Z,7.90
2022-08-26T12:56:32.822Z,7.90
2022-08-26T12:59:31.221Z,8.40
2022-08-26T13:02:41.298Z,8.10
2022-08-26T13:06:15.684Z,8.90
2022-08-26T13:12:14.971Z,8.90
2022-08-26T13:15:32.269Z,8.90
2022-08-26T13:18:23.531Z,9.10
2022-08-26T13:21:23.184Z,9.70
2022-08-26T13:24:49.061Z,8.80
2022-08-26T13:27:41.544Z,9.50
2022-08-26T13:30:36.127Z,9.10
2022-08-26T13:33:22.294Z,9.40
2022-08-26T13:36:10.196Z,9.70
2022-08-26T13:38:55.712Z,9.80
2022-08-26T13:42:07.046Z,9.90
2022-08-26T13:48:00.517Z,9.30
2022-08-26T13:50:33.997Z,9.70
2022-08-26T13:53:19.542Z,10.90
2022-08-26T13:56:29.235Z,10.00
2022-08-26T13:59:07.978Z,10.10
2022-08-26T14:01:47.669Z,10.10
2022-08-26T14:04:30.373Z,10.60
2022-08-26T14:07:25.825Z,10.90
2022-08-26T14:10:22.144Z,9.70
2022-08-26T14:12:57.033Z,9.90
2022-08-26T14:15:54.722Z,10.20
2022-08-26T14:18:48.599Z,9.90
2022-08-26T14:21:26.543Z,10.50
2022-08-26T14:24:10.479Z,10.40
2022-08-26T14:26:49.836Z,10.80
2022-08-26T14:29:51.062Z,10.70
2022-08-26T14:32:42.496Z,10.00
2022-08-26T14:35:22.324Z,10.40
2022-08-26T14:37:58.402Z,11.10
2022-08-26T14:40:37.664Z,10.70
2022-08-26T14:43:17.472Z,11.20
2022-08-26T14:46:30.138Z,10.80
2022-08-26T14:49:09.867Z,9.80
2022-08-26T14:51:50.458Z,9.80
2022-08-26T14:54:32.490Z,10.40
2022-08-26T14:57:09.482Z,11.00
2022-08-26T14:59:55.757Z,10.80
2022-08-26T15:03:02.152Z,10.10
2022-08-26T15:05:51.544Z,10.60
2022-08-26T15:08:30.303Z,10.20
2022-08-26T15:11:22.158Z,10.40
2022-08-26T15:14:05.444Z,10.80
2022-08-26T15:16:55.905Z,10.30
2022-08-26T15:19:40.119Z,9.40
2022-08-26T15:22:15.533Z,9.60
2022-08-26T15:25:29.520Z,10.20
2022-08-26T15:28:23.072Z,9.80
2022-08-26T15:31:37.914Z,10.20
2022-08-26T15:34:42.309Z,9.90
2022-08-26T15:37:33.062Z,9.90
2022-08-26T15:40:23.537Z,9.20
2022-08-26T15:43:35.561Z,9.30
2022-08-26T15:46:58.753Z,9.60
2022-08-26T15:53:48.688Z,9.30
2022-08-26T15:59:57.903Z,9.50
2022-08-26T16:06:04.252Z,9.80
2022-08-26T16:09:07.511Z,9.80
2022-08-26T16:11:56.060Z,9.60
2022-08-26T16:14:56.565Z,9.10
2022-08-26T16:17:46.320Z,8.90
2022-08-26T16:20:27.097Z,8.70
2022-08-26T16:23:22.659Z,9.40
2022-08-26T16:26:21.837Z,9.40
2022-08-26T16:29:19.391Z,9.40
2022-08-26T16:32:29.432Z,8.40
2022-08-26T16:35:18.372Z,8.90
2022-08-26T16:38:39.014Z,8.50
2022-08-26T16:41:28.238Z,7.90
2022-08-26T16:44:35.134Z,8.50
2022-08-26T16:47:26.270Z,9.40
2022-08-26T16:50:21.004Z,7.90
2022-08-26T16:54:02.888Z,8.50
2022-08-26T16:56:50.581Z,7.80
2022-08-26T16:59:26.438Z,8.60
2022-08-26T17:02:17.298Z,8.40
2022-08-26T17:05:09.205Z,8.40
2022-08-26T17:08:12.052Z,8.50
2022-08-26T17:11:03.512Z,8.20
2022-08-26T17:14:27.761Z,7.80
2022-08-26T17:17:14.559Z,8.10
2022-08-26T17:20:45.040Z,8.30
2022-08-26T17:23:47.031Z,8.20
2022-08-26T17:26:47.838Z,8.70
2022-08-26T17:29:40.736Z,8.10
2022-08-26T17:32:15.138Z,8.80
2022-08-26T17:35:00.009Z,8.90
2022-08-26T17:37:45.401Z,8.60
2022-08-26T17:40:38.969Z,8.80
2022-08-26T17:43:40.489Z,8.60
2022-08-26T17:46:40.495Z,8.20
2022-08-26T17:49:54.244Z,8.50
2022-08-26T17:52:53.271Z,9.00
2022-08-26T17:58:50.944Z,8.60
2022-08-26T18:05:29.387Z,8.50
2022-08-26T18:08:39.512Z,8.80
2022-08-26T18:14:33.014Z,8.50
2022-08-26T18:17:18.172Z,9.20
2022-08-26T18:20:16.343Z,8.70
2022-08-26T18:24:01.879Z,9.00
2022-08-26T18:26:54.069Z,8.60
2022-08-26T18:29:45.466Z,8.90
2022-08-26T18:32:34.874Z,9.00
2022-08-26T18:35:22.078Z,9.00
2022-08-26T18:38:17.258Z,9.10
2022-08-26T18:40:49.837Z,9.20
2022-08-26T18:44:13.944Z,9.00
2022-08-26T18:46:52.996Z,9.20
2022-08-26T18:53:04.229Z,8.90
2022-08-26T18:56:00.228Z,9.60
2022-08-26T18:58:49.771Z,9.10
2022-08-26T19:01:51.409Z,8.90
2022-08-26T19:04:45.146Z,9.80
2022-08-26T19:08:10.132Z,10.10
2022-08-26T19:10:55.967Z,10.30
2022-08-26T19:14:09.803Z,9.30
2022-08-26T19:17:12.443Z,9.00
2022-08-26T19:19:53.576Z,9.40
2022-08-26T19:22:51.761Z,10.40
2022-08-26T19:25:42.008Z,9.40
2022-08-26T19:28:36.802Z,8.80
2022-08-26T19:31:24.044Z,9.50
2022-08-26T19:35:07.443Z,10.00
2022-08-26T19:38:07.232Z,10.20
2022-08-26T19:41:01.554Z,10.10
2022-08-26T19:43:35.574Z,10.20
2022-08-26T19:46:43.853Z,10.30
2022-08-26T19:49:48.817Z,10.10
2022-08-26T19:52:29.842Z,10.20
2022-08-26T19:55:37.013Z,10.10
2022-08-26T19:58:12.730Z,10.90
2022-08-26T20:00:50.967Z,10.10
2022-08-26T20:03:48.637Z,11.20
2022-08-26T20:06:39.640Z,10.60
2022-08-26T20:09:17.617Z,10.20
2022-08-26T20:12:22.950Z,11.00
2022-08-26T20:15:20.779Z,10.70
2022-08-26T20:18:32.741Z,10.30
2022-08-26T20:21:35.012Z,10.70
2022-08-26T20:24:37.305Z,10.60
2022-08-26T20:27:38.622Z,11.20
2022-08-26T20:30:54.206Z,10.60
2022-08-26T20:34:03.253Z,10.60
2022-08-26T20:36:58.902Z,10.60
2022-08-26T20:43:06.740Z,11.30
2022-08-26T20:46:24.679Z,11.40
2022-08-26T20:49:40.988Z,10.70
2022-08-26T20:52:31.947Z,11.10
2022-08-26T20:55:30.005Z,10.80
2022-08-26T20:58:23.493Z,11.50
2022-08-26T21:01:12.795Z,10.70
2022-08-26T21:03:51.990Z,10.30
2022-08-26T21:06:54.084Z,9.90
2022-08-26T21:09:42.986Z,11.00
2022-08-26T21:12:34.253Z,10.70
2022-08-26T21:18:02.445Z,10.20
2022-08-26T21:20:53.909Z,9.90
2022-08-26T21:24:11.354Z,10.70
2022-08-26T21:27:02.936Z,10.30
2022-08-26T21:29:37.392Z,10.50
2022-08-26T21:32:56.560Z,9.70
2022-08-26T21:35:42.185Z,10.40
2022-08-26T21:38:31.598Z,10.30
2022-08-26T21:41:30.696Z,11.40
2022-08-26T21:44:12.821Z,11.30
2022-08-26T21:46:58.613Z,11.70
2022-08-26T21:49:59.237Z,11.50
2022-08-26T21:52:58.453Z,11.10
2022-08-26T21:55:39.972Z,11.10
2022-08-26T21:58:22.127Z,11.10
2022-08-26T22:01:02.056Z,11.40
2022-08-26T22:03:47.072Z,11.80
2022-08-26T22:07:06.433Z,11.30
2022-08-26T22:09:52.984Z,11.70
2022-08-26T22:13:01.117Z,11.40
2022-08-26T22:15:58.683Z,11.60
2022-08-26T22:18:39.365Z,11.60
2022-08-26T22:24:13.178Z,12.20
2022-08-26T22:26:57.436Z,12.00
2022-08-26T22:29:57.415Z,12.10
2022-08-26T22:32:46.163Z,12.50
2022-08-26T22:35:29.748Z,12.20
2022-08-26T22:38:23.010Z,11.90
2022-08-26T22:41:24.873Z,12.60
2022-08-26T22:44:07.885Z,12.60
2022-08-26T22:46:55.213Z,12.00
2022-08-26T22:49:35.614Z,11.80
2022-08-26T22:52:22.042Z,12.60
2022-08-26T22:55:27.937Z,12.60
2022-08-26T22:58:16.692Z,12.10
2022-08-26T23:01:23.180Z,12.20
2022-08-26T23:04:00.189Z,11.70
2022-08-26T23:06:41.604Z,12.30
2022-08-26T23:09:26.393Z,12.10
2022-08-26T23:12:42.237Z,13.10
2022-08-26T23:15:34.362Z,12.40
2022-08-26T23:18:26.459Z,12.20
2022-08-26T23:21:15.193Z,12.70
2022-08-26T23:23:54.024Z,13.00
2022-08-26T23:26:37.977Z,12.80
2022-08-26T23:30:13.025Z,13.30
2022-08-26T23:32:57.739Z,13.30
2022-08-26T23:35:53.603Z,13.20
2022-08-26T23:38:37.577Z,13.70
2022-08-26T23:41:13.351Z,12.40
2022-08-26T23:44:05.602Z,12.10
2022-08-26T23:46:55.253Z,12.30
2022-08-26T23:50:01.694Z,13.10
2022-08-26T23:52:50.128Z,12.90
2022-08-26T23:55:24.873Z,14.00
2022-08-26T23:58:14.536Z,13.00
